sensor_id;sensor_type;location;lat;lon;timestamp;P1;durP1;ratioP1;P2;durP2;ratioP2
52590;SDS011;38483;42.620;25.394;2023-03-05T00:01:09;26.50;;;15.00;;
52590;SDS011;38483;42.620;25.394;2023-03-05T00:03:40;23.63;;;12.30;;
52590;SDS011;38483;42.620;25.394;2023-03-05T00:06:08;17.90;;;11.17;;
52590;SDS011;38483;42.620;25.394;2023-03-05T00:08:35;23.80;;;12.70;;
52590;SDS011;38483;42.620;25.394;2023-03-05T00:11:03;20.70;;;11.80;;
52590;SDS011;38483;42.620;25.394;2023-03-05T00:13:36;19.90;;;12.03;;
52590;SDS011;38483;42.620;25.394;2023-03-05T00:16:04;21.70;;;11.70;;
52590;SDS011;38483;42.620;25.394;2023-03-05T00:18:34;19.50;;;11.77;;
52590;SDS011;38483;42.620;25.394;2023-03-05T00:21:01;23.10;;;12.40;;
52590;SDS011;38483;42.620;25.394;2023-03-05T00:23:28;16.57;;;10.50;;
52590;SDS011;38483;42.620;25.394;2023-03-05T00:25:55;17.97;;;11.90;;
52590;SDS011;38483;42.620;25.394;2023-03-05T00:28:26;21.50;;;13.10;;
52590;SDS011;38483;42.620;25.394;2023-03-05T00:30:53;20.50;;;11.47;;
52590;SDS011;38483;42.620;25.394;2023-03-05T00:33:20;17.93;;;12.37;;
52590;SDS011;38483;42.620;25.394;2023-03-05T00:35:47;24.53;;;13.53;;
52590;SDS011;38483;42.620;25.394;2023-03-05T00:38:15;19.73;;;11.90;;
52590;SDS011;38483;42.620;25.394;2023-03-05T00:40:42;21.07;;;13.50;;
52590;SDS011;38483;42.620;25.394;2023-03-05T00:43:09;20.50;;;13.03;;
52590;SDS011;38483;42.620;25.394;2023-03-05T00:45:36;24.10;;;14.50;;
52590;SDS011;38483;42.620;25.394;2023-03-05T00:48:04;25.00;;;13.70;;
52590;SDS011;38483;42.620;25.394;2023-03-05T00:50:32;22.67;;;13.93;;
52590;SDS011;38483;42.620;25.394;2023-03-05T00:52:59;20.17;;;12.00;;
52590;SDS011;38483;42.620;25.394;2023-03-05T00:55:32;20.97;;;12.23;;
52590;SDS011;38483;42.620;25.394;2023-03-05T00:58:04;20.20;;;11.83;;
52590;SDS011;38483;42.620;25.394;2023-03-05T01:00:32;20.70;;;12.23;;
52590;SDS011;38483;42.620;25.394;2023-03-05T01:03:02;17.67;;;11.83;;
52590;SDS011;38483;42.620;25.394;2023-03-05T01:05:30;19.10;;;11.77;;
52590;SDS011;38483;42.620;25.394;2023-03-05T01:07:57;20.70;;;12.20;;
52590;SDS011;38483;42.620;25.394;2023-03-05T01:10:24;20.43;;;11.77;;
52590;SDS011;38483;42.620;25.394;2023-03-05T01:12:57;16.70;;;10.97;;
52590;SDS011;38483;42.620;25.394;2023-03-05T01:15:24;19.50;;;11.17;;
52590;SDS011;38483;42.620;25.394;2023-03-05T01:17:51;19.70;;;11.60;;
52590;SDS011;38483;42.620;25.394;2023-03-05T01:20:19;18.10;;;11.97;;
52590;SDS011;38483;42.620;25.394;2023-03-05T01:22:47;25.93;;;15.67;;
52590;SDS011;38483;42.620;25.394;2023-03-05T01:25:15;24.70;;;13.40;;
52590;SDS011;38483;42.620;25.394;2023-03-05T01:27:43;19.17;;;12.93;;
52590;SDS011;38483;42.620;25.394;2023-03-05T01:30:11;21.20;;;12.87;;
52590;SDS011;38483;42.620;25.394;2023-03-05T01:32:39;20.27;;;12.70;;
52590;SDS011;38483;42.620;25.394;2023-03-05T01:35:06;26.23;;;16.37;;
52590;SDS011;38483;42.620;25.394;2023-03-05T01:37:34;27.87;;;16.10;;
52590;SDS011;38483;42.620;25.394;2023-03-05T01:40:01;32.77;;;20.40;;
52590;SDS011;38483;42.620;25.394;2023-03-05T01:42:28;40.53;;;22.73;;
52590;SDS011;38483;42.620;25.394;2023-03-05T01:44:59;29.40;;;18.33;;
52590;SDS011;38483;42.620;25.394;2023-03-05T01:47:29;26.57;;;15.97;;
52590;SDS011;38483;42.620;25.394;2023-03-05T01:49:56;39.10;;;22.90;;
52590;SDS011;38483;42.620;25.394;2023-03-05T01:52:23;25.00;;;16.17;;
52590;SDS011;38483;42.620;25.394;2023-03-05T01:54:54;26.23;;;14.47;;
52590;SDS011;38483;42.620;25.394;2023-03-05T01:57:35;21.13;;;14.27;;
52590;SDS011;38483;42.620;25.394;2023-03-05T02:00:10;23.27;;;13.90;;
52590;SDS011;38483;42.620;25.394;2023-03-05T02:02:40;26.97;;;16.50;;
52590;SDS011;38483;42.620;25.394;2023-03-05T02:05:10;27.10;;;16.97;;
52590;SDS011;38483;42.620;25.394;2023-03-05T02:07:59;26.90;;;14.67;;
52590;SDS011;38483;42.620;25.394;2023-03-05T02:10:30;21.23;;;13.63;;
52590;SDS011;38483;42.620;25.394;2023-03-05T02:13:00;23.30;;;14.77;;
52590;SDS011;38483;42.620;25.394;2023-03-05T02:15:30;21.93;;;14.10;;
52590;SDS011;38483;42.620;25.394;2023-03-05T02:17:59;22.00;;;12.00;;
52590;SDS011;38483;42.620;25.394;2023-03-05T02:20:28;22.20;;;12.13;;
52590;SDS011;38483;42.620;25.394;2023-03-05T02:22:57;20.43;;;11.77;;
52590;SDS011;38483;42.620;25.394;2023-03-05T02:25:25;22.97;;;13.30;;
52590;SDS011;38483;42.620;25.394;2023-03-05T02:27:54;23.20;;;13.77;;
52590;SDS011;38483;42.620;25.394;2023-03-05T02:30:26;25.53;;;12.80;;
52590;SDS011;38483;42.620;25.394;2023-03-05T02:32:54;21.60;;;12.53;;
52590;SDS011;38483;42.620;25.394;2023-03-05T02:35:21;21.90;;;12.03;;
52590;SDS011;38483;42.620;25.394;2023-03-05T02:37:49;22.27;;;12.73;;
52590;SDS011;38483;42.620;25.394;2023-03-05T02:40:17;20.77;;;11.83;;
52590;SDS011;38483;42.620;25.394;2023-03-05T02:42:44;18.87;;;11.60;;
52590;SDS011;38483;42.620;25.394;2023-03-05T02:45:13;19.03;;;10.87;;
52590;SDS011;38483;42.620;25.394;2023-03-05T02:47:41;20.33;;;11.80;;
52590;SDS011;38483;42.620;25.394;2023-03-05T02:50:08;21.77;;;11.00;;
52590;SDS011;38483;42.620;25.394;2023-03-05T02:52:37;17.53;;;10.80;;
52590;SDS011;38483;42.620;25.394;2023-03-05T02:55:09;20.87;;;11.13;;
52590;SDS011;38483;42.620;25.394;2023-03-05T02:57:38;20.67;;;9.73;;
52590;SDS011;38483;42.620;25.394;2023-03-05T03:00:06;18.27;;;10.90;;
52590;SDS011;38483;42.620;25.394;2023-03-05T03:02:34;18.23;;;10.33;;
52590;SDS011;38483;42.620;25.394;2023-03-05T03:05:01;18.47;;;10.60;;
52590;SDS011;38483;42.620;25.394;2023-03-05T03:07:29;17.80;;;9.60;;
52590;SDS011;38483;42.620;25.394;2023-03-05T03:09:56;16.97;;;10.10;;
52590;SDS011;38483;42.620;25.394;2023-03-05T03:12:23;17.00;;;10.27;;
52590;SDS011;38483;42.620;25.394;2023-03-05T03:14:49;16.80;;;10.03;;
52590;SDS011;38483;42.620;25.394;2023-03-05T03:17:17;17.87;;;9.70;;
52590;SDS011;38483;42.620;25.394;2023-03-05T03:19:44;17.77;;;9.83;;
52590;SDS011;38483;42.620;25.394;2023-03-05T03:22:12;16.23;;;10.90;;
52590;SDS011;38483;42.620;25.394;2023-03-05T03:24:41;16.00;;;9.83;;
52590;SDS011;38483;42.620;25.394;2023-03-05T03:27:09;17.97;;;10.40;;
52590;SDS011;38483;42.620;25.394;2023-03-05T03:29:36;16.27;;;10.20;;
52590;SDS011;38483;42.620;25.394;2023-03-05T03:32:03;18.93;;;10.13;;
52590;SDS011;38483;42.620;25.394;2023-03-05T03:34:31;18.03;;;9.80;;
52590;SDS011;38483;42.620;25.394;2023-03-05T03:36:58;16.47;;;9.70;;
52590;SDS011;38483;42.620;25.394;2023-03-05T03:39:24;17.40;;;9.77;;
52590;SDS011;38483;42.620;25.394;2023-03-05T03:41:52;20.10;;;11.27;;
52590;SDS011;38483;42.620;25.394;2023-03-05T03:44:19;18.13;;;10.90;;
52590;SDS011;38483;42.620;25.394;2023-03-05T03:46:47;21.90;;;11.50;;
52590;SDS011;38483;42.620;25.394;2023-03-05T03:49:22;22.07;;;11.63;;
52590;SDS011;38483;42.620;25.394;2023-03-05T03:51:51;17.30;;;10.90;;
52590;SDS011;38483;42.620;25.394;2023-03-05T03:54:24;20.63;;;11.57;;
52590;SDS011;38483;42.620;25.394;2023-03-05T03:56:51;20.73;;;13.47;;
52590;SDS011;38483;42.620;25.394;2023-03-05T03:59:18;21.97;;;13.10;;
52590;SDS011;38483;42.620;25.394;2023-03-05T04:01:45;18.23;;;10.53;;
52590;SDS011;38483;42.620;25.394;2023-03-05T04:04:13;15.40;;;11.23;;
52590;SDS011;38483;42.620;25.394;2023-03-05T04:06:41;16.90;;;11.77;;
52590;SDS011;38483;42.620;25.394;2023-03-05T04:09:08;29.30;;;15.00;;
52590;SDS011;38483;42.620;25.394;2023-03-05T04:11:35;32.00;;;18.83;;
52590;SDS011;38483;42.620;25.394;2023-03-05T04:14:03;29.73;;;17.33;;
52590;SDS011;38483;42.620;25.394;2023-03-05T04:16:31;30.97;;;15.80;;
52590;SDS011;38483;42.620;25.394;2023-03-05T04:18:58;24.93;;;14.17;;
52590;SDS011;38483;42.620;25.394;2023-03-05T04:21:25;21.40;;;12.53;;
52590;SDS011;38483;42.620;25.394;2023-03-05T04:23:52;18.23;;;12.13;;
52590;SDS011;38483;42.620;25.394;2023-03-05T04:26:19;22.40;;;13.00;;
52590;SDS011;38483;42.620;25.394;2023-03-05T04:28:46;20.93;;;12.87;;
52590;SDS011;38483;42.620;25.394;2023-03-05T04:31:14;22.07;;;12.77;;
52590;SDS011;38483;42.620;25.394;2023-03-05T04:33:41;19.97;;;12.17;;
52590;SDS011;38483;42.620;25.394;2023-03-05T04:36:08;20.20;;;12.43;;
52590;SDS011;38483;42.620;25.394;2023-03-05T04:38:35;21.63;;;12.27;;
52590;SDS011;38483;42.620;25.394;2023-03-05T04:41:02;20.67;;;12.63;;
52590;SDS011;38483;42.620;25.394;2023-03-05T04:43:29;21.80;;;12.50;;
52590;SDS011;38483;42.620;25.394;2023-03-05T04:45:56;23.07;;;12.77;;
52590;SDS011;38483;42.620;25.394;2023-03-05T04:48:24;25.60;;;13.93;;
52590;SDS011;38483;42.620;25.394;2023-03-05T04:50:51;18.60;;;11.73;;
52590;SDS011;38483;42.620;25.394;2023-03-05T04:53:18;25.27;;;12.97;;
52590;SDS011;38483;42.620;25.394;2023-03-05T04:55:45;19.40;;;11.70;;
52590;SDS011;38483;42.620;25.394;2023-03-05T04:58:12;21.83;;;12.10;;
52590;SDS011;38483;42.620;25.394;2023-03-05T05:00:38;21.90;;;13.03;;
52590;SDS011;38483;42.620;25.394;2023-03-05T05:03:05;21.17;;;13.53;;
52590;SDS011;38483;42.620;25.394;2023-03-05T05:05:33;19.37;;;12.93;;
52590;SDS011;38483;42.620;25.394;2023-03-05T05:08:00;20.63;;;13.03;;
52590;SDS011;38483;42.620;25.394;2023-03-05T05:10:27;20.27;;;13.70;;
52590;SDS011;38483;42.620;25.394;2023-03-05T05:12:53;28.90;;;13.37;;
52590;SDS011;38483;42.620;25.394;2023-03-05T05:15:20;18.47;;;12.97;;
52590;SDS011;38483;42.620;25.394;2023-03-05T05:17:47;23.53;;;13.03;;
52590;SDS011;38483;42.620;25.394;2023-03-05T05:20:15;25.37;;;15.53;;
52590;SDS011;38483;42.620;25.394;2023-03-05T05:22:43;24.03;;;14.20;;
52590;SDS011;38483;42.620;25.394;2023-03-05T05:25:10;21.67;;;12.63;;
52590;SDS011;38483;42.620;25.394;2023-03-05T05:27:38;21.07;;;13.67;;
52590;SDS011;38483;42.620;25.394;2023-03-05T05:30:06;23.70;;;14.33;;
52590;SDS011;38483;42.620;25.394;2023-03-05T05:32:34;22.90;;;13.10;;
52590;SDS011;38483;42.620;25.394;2023-03-05T05:35:02;23.07;;;12.60;;
52590;SDS011;38483;42.620;25.394;2023-03-05T05:37:29;19.90;;;12.40;;
52590;SDS011;38483;42.620;25.394;2023-03-05T05:39:56;19.87;;;12.23;;
52590;SDS011;38483;42.620;25.394;2023-03-05T05:42:23;19.07;;;11.93;;
52590;SDS011;38483;42.620;25.394;2023-03-05T05:44:50;18.33;;;12.37;;
52590;SDS011;38483;42.620;25.394;2023-03-05T05:47:18;19.30;;;12.30;;
52590;SDS011;38483;42.620;25.394;2023-03-05T05:49:45;18.60;;;12.37;;
52590;SDS011;38483;42.620;25.394;2023-03-05T05:52:12;18.93;;;11.53;;
52590;SDS011;38483;42.620;25.394;2023-03-05T05:54:39;23.30;;;12.80;;
52590;SDS011;38483;42.620;25.394;2023-03-05T05:57:06;18.83;;;12.43;;
52590;SDS011;38483;42.620;25.394;2023-03-05T05:59:33;19.43;;;12.43;;
52590;SDS011;38483;42.620;25.394;2023-03-05T06:02:00;19.77;;;12.07;;
52590;SDS011;38483;42.620;25.394;2023-03-05T06:04:27;19.97;;;11.97;;
52590;SDS011;38483;42.620;25.394;2023-03-05T06:06:55;19.20;;;11.40;;
52590;SDS011;38483;42.620;25.394;2023-03-05T06:09:22;19.73;;;11.07;;
52590;SDS011;38483;42.620;25.394;2023-03-05T06:11:49;17.77;;;10.57;;
52590;SDS011;38483;42.620;25.394;2023-03-05T06:14:16;22.87;;;10.30;;
52590;SDS011;38483;42.620;25.394;2023-03-05T06:16:43;16.30;;;10.40;;
52590;SDS011;38483;42.620;25.394;2023-03-05T06:19:11;15.17;;;10.33;;
52590;SDS011;38483;42.620;25.394;2023-03-05T06:21:39;18.80;;;10.90;;
52590;SDS011;38483;42.620;25.394;2023-03-05T06:24:06;19.50;;;13.50;;
52590;SDS011;38483;42.620;25.394;2023-03-05T06:26:33;23.77;;;14.07;;
52590;SDS011;38483;42.620;25.394;2023-03-05T06:29:00;20.37;;;12.23;;
52590;SDS011;38483;42.620;25.394;2023-03-05T06:31:28;20.93;;;12.67;;
52590;SDS011;38483;42.620;25.394;2023-03-05T06:33:57;25.30;;;13.30;;
52590;SDS011;38483;42.620;25.394;2023-03-05T06:36:29;19.50;;;12.70;;
52590;SDS011;38483;42.620;25.394;2023-03-05T06:38:57;19.57;;;12.03;;
52590;SDS011;38483;42.620;25.394;2023-03-05T06:41:25;19.37;;;12.60;;
52590;SDS011;38483;42.620;25.394;2023-03-05T06:43:54;16.73;;;10.93;;
52590;SDS011;38483;42.620;25.394;2023-03-05T06:46:25;15.20;;;10.97;;
52590;SDS011;38483;42.620;25.394;2023-03-05T06:48:55;17.80;;;10.67;;
52590;SDS011;38483;42.620;25.394;2023-03-05T06:51:27;18.53;;;11.30;;
52590;SDS011;38483;42.620;25.394;2023-03-05T06:53:58;16.07;;;10.17;;
52590;SDS011;38483;42.620;25.394;2023-03-05T06:56:28;17.27;;;11.47;;
52590;SDS011;38483;42.620;25.394;2023-03-05T06:58:55;17.33;;;10.80;;
52590;SDS011;38483;42.620;25.394;2023-03-05T07:01:22;19.97;;;11.43;;
52590;SDS011;38483;42.620;25.394;2023-03-05T07:03:50;18.40;;;11.37;;
52590;SDS011;38483;42.620;25.394;2023-03-05T07:06:19;19.97;;;13.20;;
52590;SDS011;38483;42.620;25.394;2023-03-05T07:08:47;21.37;;;13.33;;
52590;SDS011;38483;42.620;25.394;2023-03-05T07:11:15;23.23;;;14.40;;
52590;SDS011;38483;42.620;25.394;2023-03-05T07:13:45;22.57;;;14.20;;
52590;SDS011;38483;42.620;25.394;2023-03-05T07:16:19;25.73;;;14.13;;
52590;SDS011;38483;42.620;25.394;2023-03-05T07:18:52;24.73;;;14.60;;
52590;SDS011;38483;42.620;25.394;2023-03-05T07:21:20;27.43;;;15.47;;
52590;SDS011;38483;42.620;25.394;2023-03-05T07:23:53;31.97;;;18.47;;
52590;SDS011;38483;42.620;25.394;2023-03-05T07:26:21;28.37;;;17.00;;
52590;SDS011;38483;42.620;25.394;2023-03-05T07:28:48;26.73;;;16.50;;
52590;SDS011;38483;42.620;25.394;2023-03-05T07:31:20;19.93;;;12.30;;
52590;SDS011;38483;42.620;25.394;2023-03-05T07:33:56;22.50;;;12.53;;
52590;SDS011;38483;42.620;25.394;2023-03-05T07:36:29;25.23;;;12.50;;
52590;SDS011;38483;42.620;25.394;2023-03-05T07:38:56;20.57;;;12.57;;
52590;SDS011;38483;42.620;25.394;2023-03-05T07:41:23;22.90;;;11.80;;
52590;SDS011;38483;42.620;25.394;2023-03-05T07:43:51;21.53;;;12.90;;
52590;SDS011;38483;42.620;25.394;2023-03-05T07:46:20;30.37;;;14.30;;
52590;SDS011;38483;42.620;25.394;2023-03-05T07:48:50;27.60;;;13.53;;
52590;SDS011;38483;42.620;25.394;2023-03-05T07:51:18;27.13;;;15.70;;
52590;SDS011;38483;42.620;25.394;2023-03-05T07:53:46;24.27;;;15.43;;
52590;SDS011;38483;42.620;25.394;2023-03-05T07:56:23;23.70;;;15.43;;
52590;SDS011;38483;42.620;25.394;2023-03-05T07:58:54;29.27;;;19.13;;
52590;SDS011;38483;42.620;25.394;2023-03-05T08:01:21;28.23;;;18.00;;
52590;SDS011;38483;42.620;25.394;2023-03-05T08:03:48;23.53;;;14.20;;
52590;SDS011;38483;42.620;25.394;2023-03-05T08:06:15;24.57;;;14.13;;
52590;SDS011;38483;42.620;25.394;2023-03-05T08:08:43;27.93;;;14.83;;
52590;SDS011;38483;42.620;25.394;2023-03-05T08:11:11;28.23;;;16.37;;
52590;SDS011;38483;42.620;25.394;2023-03-05T08:13:40;26.70;;;16.57;;
52590;SDS011;38483;42.620;25.394;2023-03-05T08:16:09;28.80;;;18.60;;
52590;SDS011;38483;42.620;25.394;2023-03-05T08:18:39;31.27;;;18.23;;
52590;SDS011;38483;42.620;25.394;2023-03-05T08:21:16;28.63;;;16.90;;
52590;SDS011;38483;42.620;25.394;2023-03-05T08:23:45;28.40;;;16.60;;
52590;SDS011;38483;42.620;25.394;2023-03-05T08:26:15;30.40;;;17.03;;
52590;SDS011;38483;42.620;25.394;2023-03-05T08:28:44;26.17;;;16.27;;
52590;SDS011;38483;42.620;25.394;2023-03-05T08:31:12;27.17;;;16.67;;
52590;SDS011;38483;42.620;25.394;2023-03-05T08:33:40;29.03;;;17.40;;
52590;SDS011;38483;42.620;25.394;2023-03-05T08:36:08;28.83;;;17.70;;
52590;SDS011;38483;42.620;25.394;2023-03-05T08:38:36;28.60;;;17.87;;
52590;SDS011;38483;42.620;25.394;2023-03-05T08:41:03;30.97;;;17.80;;
52590;SDS011;38483;42.620;25.394;2023-03-05T08:43:33;26.23;;;14.80;;
52590;SDS011;38483;42.620;25.394;2023-03-05T08:46:00;26.40;;;15.47;;
52590;SDS011;38483;42.620;25.394;2023-03-05T08:48:28;24.43;;;14.37;;
52590;SDS011;38483;42.620;25.394;2023-03-05T08:50:56;25.23;;;13.87;;
52590;SDS011;38483;42.620;25.394;2023-03-05T08:53:26;26.87;;;13.23;;
52590;SDS011;38483;42.620;25.394;2023-03-05T08:55:56;25.37;;;13.47;;
52590;SDS011;38483;42.620;25.394;2023-03-05T08:58:25;23.63;;;12.30;;
52590;SDS011;38483;42.620;25.394;2023-03-05T09:00:52;22.57;;;11.80;;
52590;SDS011;38483;42.620;25.394;2023-03-05T09:03:19;20.73;;;11.57;;
52590;SDS011;38483;42.620;25.394;2023-03-05T09:05:46;17.70;;;12.43;;
52590;SDS011;38483;42.620;25.394;2023-03-05T09:08:13;23.00;;;12.33;;
52590;SDS011;38483;42.620;25.394;2023-03-05T09:10:44;20.67;;;11.83;;
52590;SDS011;38483;42.620;25.394;2023-03-05T09:13:11;19.40;;;11.30;;
52590;SDS011;38483;42.620;25.394;2023-03-05T09:15:38;21.10;;;11.63;;
52590;SDS011;38483;42.620;25.394;2023-03-05T09:18:05;23.57;;;13.10;;
52590;SDS011;38483;42.620;25.394;2023-03-05T09:20:34;25.00;;;14.20;;
52590;SDS011;38483;42.620;25.394;2023-03-05T09:23:02;20.27;;;13.13;;
52590;SDS011;38483;42.620;25.394;2023-03-05T09:25:29;22.40;;;13.70;;
52590;SDS011;38483;42.620;25.394;2023-03-05T09:27:57;25.20;;;13.80;;
52590;SDS011;38483;42.620;25.394;2023-03-05T09:30:24;21.70;;;13.27;;
52590;SDS011;38483;42.620;25.394;2023-03-05T09:32:53;24.63;;;13.00;;
52590;SDS011;38483;42.620;25.394;2023-03-05T09:35:20;24.70;;;13.40;;
52590;SDS011;38483;42.620;25.394;2023-03-05T09:37:47;24.90;;;13.50;;
52590;SDS011;38483;42.620;25.394;2023-03-05T09:40:18;22.50;;;14.20;;
52590;SDS011;38483;42.620;25.394;2023-03-05T09:48:41;23.73;;;13.73;;
52590;SDS011;38483;42.620;25.394;2023-03-05T09:51:12;19.43;;;12.17;;
52590;SDS011;38483;42.620;25.394;2023-03-05T09:53:55;23.73;;;13.40;;
52590;SDS011;38483;42.620;25.394;2023-03-05T09:56:30;24.63;;;14.30;;
52590;SDS011;38483;42.620;25.394;2023-03-05T09:59:15;32.27;;;15.27;;
52590;SDS011;38483;42.620;25.394;2023-03-05T10:02:11;22.20;;;13.90;;
52590;SDS011;38483;42.620;25.394;2023-03-05T10:04:51;25.17;;;13.77;;
52590;SDS011;38483;42.620;25.394;2023-03-05T10:07:31;24.80;;;14.17;;
52590;SDS011;38483;42.620;25.394;2023-03-05T10:13:03;19.57;;;11.93;;
52590;SDS011;38483;42.620;25.394;2023-03-05T10:15:43;18.10;;;11.77;;
52590;SDS011;38483;42.620;25.394;2023-03-05T10:24:32;31.03;;;14.50;;
52590;SDS011;38483;42.620;25.394;2023-03-05T10:26:46;23.63;;;13.30;;
52590;SDS011;38483;42.620;25.394;2023-03-05T10:35:33;19.87;;;11.77;;
52590;SDS011;38483;42.620;25.394;2023-03-05T10:43:48;25.63;;;14.23;;
52590;SDS011;38483;42.620;25.394;2023-03-05T10:46:17;26.87;;;14.80;;
52590;SDS011;38483;42.620;25.394;2023-03-05T10:48:58;25.63;;;15.50;;
52590;SDS011;38483;42.620;25.394;2023-03-05T10:51:48;25.00;;;13.97;;
52590;SDS011;38483;42.620;25.394;2023-03-05T10:54:34;23.57;;;14.03;;
52590;SDS011;38483;42.620;25.394;2023-03-05T10:57:12;19.03;;;11.00;;
52590;SDS011;38483;42.620;25.394;2023-03-05T11:02:14;17.03;;;9.93;;
52590;SDS011;38483;42.620;25.394;2023-03-05T11:04:42;18.87;;;10.50;;
52590;SDS011;38483;42.620;25.394;2023-03-05T11:09:43;18.63;;;10.63;;
52590;SDS011;38483;42.620;25.394;2023-03-05T11:12:37;20.43;;;11.77;;
52590;SDS011;38483;42.620;25.394;2023-03-05T11:15:16;19.10;;;11.77;;
52590;SDS011;38483;42.620;25.394;2023-03-05T11:18:37;20.20;;;11.47;;
52590;SDS011;38483;42.620;25.394;2023-03-05T11:20:43;17.73;;;10.73;;
52590;SDS011;38483;42.620;25.394;2023-03-05T11:33:55;20.83;;;11.33;;
52590;SDS011;38483;42.620;25.394;2023-03-05T11:36:34;22.57;;;12.83;;
52590;SDS011;38483;42.620;25.394;2023-03-05T11:39:14;23.00;;;13.10;;
52590;SDS011;38483;42.620;25.394;2023-03-05T11:41:50;22.90;;;12.97;;
52590;SDS011;38483;42.620;25.394;2023-03-05T11:52:35;22.17;;;14.17;;
52590;SDS011;38483;42.620;25.394;2023-03-05T11:55:14;24.30;;;13.53;;
52590;SDS011;38483;42.620;25.394;2023-03-05T11:57:46;22.80;;;14.40;;
52590;SDS011;38483;42.620;25.394;2023-03-05T12:00:24;23.10;;;12.97;;
52590;SDS011;38483;42.620;25.394;2023-03-05T12:02:56;28.73;;;13.50;;
52590;SDS011;38483;42.620;25.394;2023-03-05T12:05:26;26.07;;;14.37;;
52590;SDS011;38483;42.620;25.394;2023-03-05T12:07:56;25.23;;;14.13;;
52590;SDS011;38483;42.620;25.394;2023-03-05T12:10:27;20.57;;;12.50;;
52590;SDS011;38483;42.620;25.394;2023-03-05T12:12:56;22.33;;;12.57;;
52590;SDS011;38483;42.620;25.394;2023-03-05T12:15:31;19.53;;;11.07;;
52590;SDS011;38483;42.620;25.394;2023-03-05T12:21:12;23.00;;;13.77;;
52590;SDS011;38483;42.620;25.394;2023-03-05T12:23:49;24.13;;;14.13;;
52590;SDS011;38483;42.620;25.394;2023-03-05T12:26:52;25.10;;;13.80;;
52590;SDS011;38483;42.620;25.394;2023-03-05T12:34:57;23.80;;;14.57;;
52590;SDS011;38483;42.620;25.394;2023-03-05T12:40:20;24.47;;;14.13;;
52590;SDS011;38483;42.620;25.394;2023-03-05T12:43:03;24.37;;;15.23;;
52590;SDS011;38483;42.620;25.394;2023-03-05T12:45:38;28.80;;;15.43;;
52590;SDS011;38483;42.620;25.394;2023-03-05T13:03:59;23.57;;;14.80;;
52590;SDS011;38483;42.620;25.394;2023-03-05T13:06:37;25.50;;;14.43;;
52590;SDS011;38483;42.620;25.394;2023-03-05T13:09:18;26.17;;;15.10;;
52590;SDS011;38483;42.620;25.394;2023-03-05T13:11:51;32.80;;;16.07;;
52590;SDS011;38483;42.620;25.394;2023-03-05T13:16:58;23.80;;;14.73;;
52590;SDS011;38483;42.620;25.394;2023-03-05T13:19:28;31.07;;;14.73;;
52590;SDS011;38483;42.620;25.394;2023-03-05T13:21:59;22.30;;;13.60;;
52590;SDS011;38483;42.620;25.394;2023-03-05T13:24:28;31.03;;;15.53;;
52590;SDS011;38483;42.620;25.394;2023-03-05T13:26:56;21.87;;;15.23;;
52590;SDS011;38483;42.620;25.394;2023-03-05T13:29:24;22.10;;;12.60;;
52590;SDS011;38483;42.620;25.394;2023-03-05T13:31:59;20.00;;;12.43;;
52590;SDS011;38483;42.620;25.394;2023-03-05T13:37:19;27.27;;;14.70;;
52590;SDS011;38483;42.620;25.394;2023-03-05T13:39:51;23.27;;;14.40;;
52590;SDS011;38483;42.620;25.394;2023-03-05T13:42:33;22.40;;;12.77;;
52590;SDS011;38483;42.620;25.394;2023-03-05T13:45:05;35.17;;;17.47;;
52590;SDS011;38483;42.620;25.394;2023-03-05T13:47:54;30.30;;;16.63;;
52590;SDS011;38483;42.620;25.394;2023-03-05T13:50:31;27.47;;;15.27;;
52590;SDS011;38483;42.620;25.394;2023-03-05T13:53:16;25.50;;;14.93;;
52590;SDS011;38483;42.620;25.394;2023-03-05T13:55:47;23.50;;;13.87;;
52590;SDS011;38483;42.620;25.394;2023-03-05T14:01:14;25.43;;;13.83;;
52590;SDS011;38483;42.620;25.394;2023-03-05T14:03:43;24.90;;;13.40;;
52590;SDS011;38483;42.620;25.394;2023-03-05T14:06:17;25.23;;;14.53;;
52590;SDS011;38483;42.620;25.394;2023-03-05T14:08:48;26.70;;;15.77;;
52590;SDS011;38483;42.620;25.394;2023-03-05T14:11:20;21.33;;;13.43;;
52590;SDS011;38483;42.620;25.394;2023-03-05T14:13:47;33.10;;;14.67;;
52590;SDS011;38483;42.620;25.394;2023-03-05T14:16:22;25.60;;;13.70;;
52590;SDS011;38483;42.620;25.394;2023-03-05T14:18:56;28.40;;;13.40;;
52590;SDS011;38483;42.620;25.394;2023-03-05T14:21:46;21.73;;;13.07;;
52590;SDS011;38483;42.620;25.394;2023-03-05T14:24:23;23.00;;;13.50;;
52590;SDS011;38483;42.620;25.394;2023-03-05T14:26:54;20.37;;;12.27;;
52590;SDS011;38483;42.620;25.394;2023-03-05T14:29:30;21.17;;;12.13;;
52590;SDS011;38483;42.620;25.394;2023-03-05T14:34:29;19.80;;;11.23;;
52590;SDS011;38483;42.620;25.394;2023-03-05T14:37:01;23.77;;;12.67;;
52590;SDS011;38483;42.620;25.394;2023-03-05T14:42:14;20.57;;;11.83;;
52590;SDS011;38483;42.620;25.394;2023-03-05T14:44:49;21.10;;;11.83;;
52590;SDS011;38483;42.620;25.394;2023-03-05T14:47:16;21.70;;;12.63;;
52590;SDS011;38483;42.620;25.394;2023-03-05T14:49:43;26.07;;;13.93;;
52590;SDS011;38483;42.620;25.394;2023-03-05T14:52:13;22.67;;;12.90;;
52590;SDS011;38483;42.620;25.394;2023-03-05T14:54:42;25.37;;;13.13;;
52590;SDS011;38483;42.620;25.394;2023-03-05T14:57:20;23.43;;;13.03;;
52590;SDS011;38483;42.620;25.394;2023-03-05T14:59:49;22.77;;;13.43;;
52590;SDS011;38483;42.620;25.394;2023-03-05T15:02:18;22.97;;;12.40;;
52590;SDS011;38483;42.620;25.394;2023-03-05T15:04:47;23.97;;;12.43;;
52590;SDS011;38483;42.620;25.394;2023-03-05T15:07:30;23.63;;;15.03;;
52590;SDS011;38483;42.620;25.394;2023-03-05T15:09:57;23.13;;;13.90;;
52590;SDS011;38483;42.620;25.394;2023-03-05T15:12:28;22.30;;;12.33;;
52590;SDS011;38483;42.620;25.394;2023-03-05T15:14:56;19.50;;;12.47;;
52590;SDS011;38483;42.620;25.394;2023-03-05T15:20:01;20.30;;;11.60;;
52590;SDS011;38483;42.620;25.394;2023-03-05T15:22:33;21.83;;;12.20;;
52590;SDS011;38483;42.620;25.394;2023-03-05T15:25:00;21.27;;;12.30;;
52590;SDS011;38483;42.620;25.394;2023-03-05T15:27:28;22.10;;;12.37;;
52590;SDS011;38483;42.620;25.394;2023-03-05T15:29:55;26.10;;;15.23;;
52590;SDS011;38483;42.620;25.394;2023-03-05T15:32:23;18.10;;;10.77;;
52590;SDS011;38483;42.620;25.394;2023-03-05T15:34:53;16.13;;;9.80;;
52590;SDS011;38483;42.620;25.394;2023-03-05T15:37:20;17.53;;;9.20;;
52590;SDS011;38483;42.620;25.394;2023-03-05T15:39:47;14.97;;;10.10;;
52590;SDS011;38483;42.620;25.394;2023-03-05T15:42:15;17.20;;;10.37;;
52590;SDS011;38483;42.620;25.394;2023-03-05T15:44:42;22.37;;;12.70;;
52590;SDS011;38483;42.620;25.394;2023-03-05T15:47:09;19.73;;;11.80;;
52590;SDS011;38483;42.620;25.394;2023-03-05T15:49:36;26.40;;;12.87;;
52590;SDS011;38483;42.620;25.394;2023-03-05T15:52:04;24.53;;;11.87;;
52590;SDS011;38483;42.620;25.394;2023-03-05T15:54:31;16.47;;;10.53;;
52590;SDS011;38483;42.620;25.394;2023-03-05T15:56:58;13.90;;;9.13;;
52590;SDS011;38483;42.620;25.394;2023-03-05T15:59:25;16.10;;;8.70;;